Time;durP1;ratioP1;P1;durP2;ratioP2;P2;SDS_P1;SDS_P2;PMS_P1;PMS_P2;Temp;Humidity;BMP_temperature;BMP_pressure;BME280_temperature;BME280_humidity;BME280_pressure;Samples;Min_cycle;Max_cycle;Signal;HPM_P1;HPM_P2
2023/09/28 00:01:18;;;;;;;8.73;4.55;;;20.20;99.90;;;;;;5070416;28;20028;-72
2023/09/28 00:03:45;;;;;;;;;;;20.20;99.90;;;;;;5073335;28;20017;-72
2023/09/28 00:06:11;;;;;;;7.00;4.70;;;20.20;99.90;;;;;;5071880;28;19998;-72
2023/09/28 00:08:37;;;;;;;8.02;4.55;;;20.10;99.90;;;;;;5072808;28;20557;-72
2023/09/28 00:11:04;;;;;;;8.52;4.70;;;20.10;99.90;;;;;;5072522;28;20154;-72
2023/09/28 00:13:30;;;;;;;10.60;4.57;;;20.10;99.90;;;;;;5071742;28;20512;-71
2023/09/28 00:15:56;;;;;;;7.35;4.30;;;20.10;99.90;;;;;;5072811;28;20052;-72
2023/09/28 00:18:23;;;;;;;9.93;4.97;;;20.10;99.90;;;;;;5072563;28;20017;-72
2023/09/28 00:20:49;;;;;;;10.25;4.90;;;20.10;99.90;;;;;;5072489;28;20021;-72
2023/09/28 00:23:17;;;;;;;10.32;4.82;;;20.00;99.90;;;;;;5072211;28;20465;-71
2023/09/28 00:25:43;;;;;;;8.60;5.10;;;20.00;99.90;;;;;;5072564;28;20090;-72
2023/09/28 00:28:09;;;;;;;9.68;4.82;;;20.00;99.90;;;;;;5072555;28;20044;-72
2023/09/28 00:30:34;;;;;;;8.68;5.15;;;20.00;99.90;;;;;;5072278;28;20105;-71
2023/09/28 00:33:00;;;;;;;10.93;4.70;;;19.90;99.90;;;;;;5066669;28;20028;-71
2023/09/28 00:35:26;;;;;;;8.13;5.43;;;19.90;99.90;;;;;;5069425;28;20020;-72
2023/09/28 00:37:52;;;;;;;10.38;5.25;;;19.80;99.90;;;;;;5072098;28;20016;-71
2023/09/28 00:40:19;;;;;;;10.52;5.30;;;19.80;99.90;;;;;;5072070;28;20021;-71
2023/09/28 00:42:50;;;;;;;10.10;5.07;;;19.80;99.90;;;;;;5069874;28;20021;-71
2023/09/28 00:45:16;;;;;;;8.43;5.07;;;19.80;99.90;;;;;;5072251;28;20036;-71
2023/09/28 00:47:42;;;;;;;11.65;5.80;;;19.80;99.90;;;;;;5072100;28;20013;-71
2023/09/28 00:50:14;;;;;;;9.98;5.75;;;19.70;99.90;;;;;;5072102;28;20016;-71
2023/09/28 00:52:57;;;;;;;16.35;5.47;;;19.70;99.90;;;;;;5071756;28;20027;-71
2023/09/28 00:55:24;;;;;;;7.63;5.13;;;19.60;99.90;;;;;;5067475;28;20049;-71
2023/09/28 00:57:51;;;;;;;9.57;5.53;;;19.60;99.90;;;;;;5053966;28;20450;-71
2023/09/28 01:02:51;;;;;;;12.50;6.07;;;19.50;99.90;;;;;;5072238;28;20024;-71
2023/09/28 01:05:30;;;;;;;11.30;5.47;;;19.50;99.90;;;;;;5071575;28;20391;-71
2023/09/28 01:08:20;;;;;;;12.38;6.03;;;19.50;99.90;;;;;;5071934;28;20024;-71
2023/09/28 01:10:46;;;;;;;11.95;5.65;;;19.50;99.90;;;;;;5060556;28;20025;-71
2023/09/28 01:13:15;;;;;;;17.10;6.28;;;19.40;99.90;;;;;;5071674;28;20422;-71
2023/09/28 01:15:42;;;;;;;13.88;6.18;;;19.40;99.90;;;;;;5071621;28;20020;-71
2023/09/28 01:18:09;;;;;;;18.00;6.07;;;19.40;99.90;;;;;;5071459;28;20020;-71
2023/09/28 01:20:37;;;;;;;16.13;6.45;;;19.40;99.90;;;;;;5071580;28;20032;-71
2023/09/28 01:23:06;;;;;;;14.88;5.53;;;19.40;99.90;;;;;;5071190;28;20057;-71
2023/09/28 01:25:33;;;;;;;16.25;5.82;;;19.30;99.90;;;;;;5071327;28;20081;-71
2023/09/28 01:27:59;;;;;;;13.73;5.35;;;19.30;99.90;;;;;;5071333;28;20440;-71
2023/09/28 01:30:25;;;;;;;13.75;5.30;;;19.20;99.90;;;;;;5071375;28;20111;-71
2023/09/28 01:32:52;;;;;;;8.98;5.13;;;19.20;99.90;;;;;;5071578;28;20024;-71
2023/09/28 01:35:18;;;;;;;14.90;5.80;;;19.20;99.90;;;;;;5064597;28;20350;-71
2023/09/28 01:38:20;;;;;;;10.55;5.35;;;19.10;99.90;;;;;;5067675;28;20033;-71
2023/09/28 01:40:49;;;;;;;15.98;5.30;;;19.10;99.90;;;;;;5066072;28;20029;-71
2023/09/28 01:43:17;;;;;;;11.68;4.70;;;19.00;99.90;;;;;;5071209;28;20111;-71
2023/09/28 01:45:44;;;;;;;14.63;5.10;;;19.00;99.90;;;;;;5071121;28;20390;-71
2023/09/28 01:48:09;;;;;;;18.90;5.60;;;19.00;99.90;;;;;;5058600;28;20735;-71
2023/09/28 01:50:35;;;;;;;9.43;4.43;;;18.90;99.90;;;;;;5071124;28;20100;-71
2023/09/28 01:53:01;;;;;;;16.10;4.57;;;18.90;99.90;;;;;;5069557;28;20028;-71
2023/09/28 01:55:27;;;;;;;12.80;4.28;;;18.90;99.90;;;;;;5071171;28;20569;-71
2023/09/28 01:57:52;;;;;;;9.75;3.92;;;18.80;99.90;;;;;;5071034;28;20021;-72
2023/09/28 02:00:20;;;;;;;11.10;4.07;;;18.80;99.90;;;;;;5071059;28;20092;-71
2023/09/28 02:02:47;;;;;;;12.43;3.83;;;18.80;99.90;;;;;;5071080;28;20048;-71
2023/09/28 02:05:18;;;;;;;12.68;3.72;;;18.80;99.90;;;;;;5071186;28;20109;-71
2023/09/28 02:07:44;;;;;;;13.20;3.65;;;18.70;99.90;;;;;;5071101;28;20021;-71
2023/09/28 02:10:10;;;;;;;13.18;3.47;;;18.70;99.90;;;;;;5071007;28;20137;-71
2023/09/28 02:12:39;;;;;;;13.68;3.20;;;18.70;99.90;;;;;;5070629;28;20120;-71
2023/09/28 02:15:09;;;;;;;14.70;3.30;;;18.70;99.90;;;;;;5070537;28;20029;-71
2023/09/28 02:17:36;;;;;;;16.77;3.35;;;18.70;99.90;;;;;;5071087;28;20025;-71
2023/09/28 02:20:09;;;;;;;12.63;3.03;;;18.70;99.90;;;;;;5070831;28;20017;-71
2023/09/28 02:22:45;;;;;;;10.32;2.92;;;18.60;99.90;;;;;;5068403;28;20235;-71
2023/09/28 02:25:15;;;;;;;12.73;3.15;;;18.60;99.90;;;;;;5069854;28;20029;-71
2023/09/28 02:27:41;;;;;;;19.17;3.22;;;18.50;99.90;;;;;;5070673;28;20077;-71
2023/09/28 02:30:10;;;;;;;19.67;3.60;;;18.50;99.90;;;;;;5070440;28;20025;-71
2023/09/28 02:32:42;;;;;;;18.42;2.90;;;18.50;99.90;;;;;;5069387;28;20028;-71
2023/09/28 02:35:09;;;;;;;22.90;3.58;;;18.40;99.90;;;;;;5058107;28;20032;-71
2023/09/28 02:37:35;;;;;;;22.65;3.72;;;18.40;99.90;;;;;;5072279;28;20113;-71
2023/09/28 02:40:04;;;;;;;21.98;3.45;;;18.40;99.90;;;;;;5074585;28;20413;-71
2023/09/28 02:42:30;;;;;;;17.55;2.97;;;18.30;99.90;;;;;;5089807;28;20031;-71
2023/09/28 02:44:56;;;;;;;22.35;4.40;;;18.30;99.90;;;;;;5073026;28;20032;-71
2023/09/28 02:47:22;;;;;;;23.13;3.65;;;18.30;99.90;;;;;;5063447;28;20016;-71
2023/09/28 02:49:48;;;;;;;22.17;3.80;;;18.30;99.90;;;;;;5074085;28;20020;-71
2023/09/28 02:52:14;;;;;;;21.60;3.85;;;18.20;99.90;;;;;;5068998;28;20020;-71
2023/09/28 02:54:40;;;;;;;20.15;3.55;;;18.20;99.90;;;;;;5069750;28;20036;-71
2023/09/28 02:57:05;;;;;;;25.63;3.72;;;18.20;99.90;;;;;;5074120;28;20445;-71
2023/09/28 02:59:32;;;;;;;24.27;3.95;;;18.10;99.90;;;;;;5074175;28;20426;-71
2023/09/28 03:01:57;;;;;;;30.63;4.22;;;18.10;99.90;;;;;;5068091;28;20052;-71
2023/09/28 03:04:24;;;;;;;27.25;4.45;;;18.00;99.90;;;;;;5069858;28;20079;-71
2023/09/28 03:06:52;;;;;;;37.20;4.55;;;18.00;99.90;;;;;;5074271;28;20016;-71
2023/09/28 03:09:19;;;;;;;28.65;4.25;;;18.00;99.90;;;;;;5073487;28;20017;-71
2023/09/28 03:11:45;;;;;;;29.02;4.65;;;18.00;99.90;;;;;;5073827;28;20024;-71
2023/09/28 03:14:11;;;;;;;32.78;4.20;;;18.00;99.90;;;;;;5073496;28;20403;-71
2023/09/28 03:16:37;;;;;;;33.22;5.03;;;17.90;99.90;;;;;;5073635;28;20107;-71
2023/09/28 03:19:03;;;;;;;31.83;4.70;;;17.90;99.90;;;;;;5073961;28;20074;-71
2023/09/28 03:21:29;;;;;;;37.80;5.30;;;17.90;99.90;;;;;;5074012;28;20108;-71
2023/09/28 03:23:59;;;;;;;28.50;4.90;;;17.80;99.90;;;;;;5068435;28;20502;-71
2023/09/28 03:26:26;;;;;;;31.67;5.00;;;17.80;99.90;;;;;;5073476;28;20032;-71
2023/09/28 03:28:52;;;;;;;36.33;5.10;;;17.80;99.90;;;;;;5073469;28;20016;-71
2023/09/28 03:31:18;;;;;;;37.72;5.43;;;17.80;99.90;;;;;;5073422;28;20024;-71
2023/09/28 03:33:44;;;;;;;35.08;5.55;;;17.80;99.90;;;;;;5073656;28;20087;-71
2023/09/28 03:36:10;;;;;;;34.85;5.28;;;17.80;99.90;;;;;;5073472;28;20020;-71
2023/09/28 03:38:36;;;;;;;41.67;5.75;;;17.80;99.90;;;;;;5073677;28;20452;-71
2023/09/28 03:41:01;;;;;;;30.77;5.03;;;17.80;99.90;;;;;;5073346;28;20048;-71
2023/09/28 03:43:27;;;;;;;27.15;5.20;;;17.70;99.90;;;;;;5073409;28;20019;-71
2023/09/28 03:45:53;;;;;;;39.38;6.25;;;17.70;99.90;;;;;;5067658;28;20031;-71
2023/09/28 03:48:18;;;;;;;41.53;5.20;;;17.70;99.90;;;;;;5073043;28;20024;-71
2023/09/28 03:50:44;;;;;;;45.17;5.70;;;17.70;99.90;;;;;;5071620;28;20459;-71
2023/09/28 03:53:09;;;;;;;33.13;4.80;;;17.70;99.90;;;;;;5072970;28;20478;-71
2023/09/28 03:55:35;;;;;;;44.22;5.75;;;17.70;99.90;;;;;;5073019;28;20483;-71
2023/09/28 03:58:01;;;;;;;34.45;5.15;;;17.70;99.90;;;;;;5072988;28;20056;-71
2023/09/28 04:00:27;;;;;;;39.35;5.18;;;17.70;99.90;;;;;;5073037;28;20013;-71
2023/09/28 04:02:54;;;;;;;41.17;6.00;;;17.70;99.90;;;;;;5073011;28;20032;-71
2023/09/28 04:05:20;;;;;;;40.97;6.18;;;17.70;99.90;;;;;;5072824;28;20075;-71
2023/09/28 04:07:46;;;;;;;38.72;5.97;;;17.70;99.90;;;;;;5071517;28;20107;-71
2023/09/28 04:10:12;;;;;;;36.67;5.93;;;17.70;99.90;;;;;;5072941;28;20111;-71
2023/09/28 04:12:38;;;;;;;39.90;5.93;;;17.70;99.90;;;;;;5072479;28;20066;-71
2023/09/28 04:15:05;;;;;;;40.45;6.43;;;17.70;99.90;;;;;;5072786;28;20021;-71
2023/09/28 04:17:30;;;;;;;36.78;5.30;;;17.60;99.90;;;;;;5070950;28;20028;-71
2023/09/28 04:19:56;;;;;;;39.03;5.70;;;17.60;99.90;;;;;;5068071;28;20024;-71
2023/09/28 04:22:22;;;;;;;41.17;6.25;;;17.50;99.90;;;;;;5072354;28;20021;-71
2023/09/28 04:24:47;;;;;;;35.03;5.45;;;17.50;99.90;;;;;;5072407;28;20029;-71
2023/09/28 04:27:13;;;;;;;43.28;6.30;;;17.50;99.90;;;;;;5072487;28;20098;-71
2023/09/28 04:29:40;;;;;;;35.05;5.93;;;17.50;99.90;;;;;;5071329;28;20466;-71
2023/09/28 04:32:05;;;;;;;46.83;6.28;;;17.50;99.90;;;;;;5072487;28;20025;-71
2023/09/28 04:34:31;;;;;;;50.42;7.32;;;17.40;99.90;;;;;;5071965;28;20016;-71
2023/09/28 04:36:57;;;;;;;42.03;6.32;;;17.40;99.90;;;;;;5071324;28;20028;-71
2023/09/28 04:39:24;;;;;;;45.72;5.65;;;17.40;99.90;;;;;;5072198;28;20074;-71
2023/09/28 04:41:55;;;;;;;38.67;6.07;;;17.40;99.90;;;;;;5070274;28;20017;-71
2023/09/28 04:44:22;;;;;;;39.20;5.53;;;17.40;99.90;;;;;;5069260;28;20043;-71
2023/09/28 04:46:50;;;;;;;39.28;4.97;;;17.50;99.90;;;;;;5069367;28;20349;-71
2023/09/28 04:49:20;;;;;;;30.05;5.30;;;17.50;99.90;;;;;;5071582;28;20480;-72
2023/09/28 04:51:46;;;;;;;38.47;5.60;;;17.50;99.90;;;;;;5070222;28;20032;-71
2023/09/28 04:54:12;;;;;;;35.63;5.35;;;17.50;99.90;;;;;;5071122;28;20036;-71
2023/09/28 04:56:39;;;;;;;41.25;5.07;;;17.50;99.90;;;;;;5071937;28;20028;-71
2023/09/28 04:59:04;;;;;;;42.30;6.15;;;17.50;99.90;;;;;;5069474;28;20040;-71
2023/09/28 05:01:31;;;;;;;37.40;5.15;;;17.50;99.90;;;;;;5071559;28;20021;-71
2023/09/28 05:03:56;;;;;;;36.75;5.78;;;17.40;99.90;;;;;;5068429;28;20047;-71
2023/09/28 05:06:22;;;;;;;43.53;5.97;;;17.40;99.90;;;;;;5068023;28;20040;-71
2023/09/28 05:08:49;;;;;;;43.03;6.50;;;17.30;99.90;;;;;;5069048;28;20435;-71
2023/09/28 05:11:15;;;;;;;49.65;6.35;;;17.40;99.90;;;;;;5071538;28;20467;-71
2023/09/28 05:13:42;;;;;;;40.28;6.03;;;17.40;99.90;;;;;;5070335;28;20024;-71
2023/09/28 05:16:08;;;;;;;38.42;5.57;;;17.30;99.90;;;;;;5067555;28;20086;-71
2023/09/28 05:18:35;;;;;;;39.85;6.18;;;17.40;99.90;;;;;;5068611;28;20032;-71
2023/09/28 05:21:01;;;;;;;37.40;5.93;;;17.30;99.90;;;;;;5070475;28;20020;-71
2023/09/28 05:23:26;;;;;;;43.42;5.68;;;17.30;99.90;;;;;;5066707;28;20077;-71
2023/09/28 05:25:52;;;;;;;45.28;6.20;;;17.30;99.90;;;;;;5070845;28;20028;-71
2023/09/28 05:28:18;;;;;;;43.03;6.15;;;17.30;99.90;;;;;;5070316;28;20589;-71
2023/09/28 05:30:43;;;;;;;43.53;6.03;;;17.30;99.90;;;;;;5069315;28;20027;-71
2023/09/28 05:33:09;;;;;;;39.67;5.90;;;17.20;99.90;;;;;;5070615;28;20116;-71
2023/09/28 05:35:34;;;;;;;35.92;5.55;;;17.20;99.90;;;;;;5067252;28;20452;-71
2023/09/28 05:38:02;;;;;;;37.90;5.82;;;17.20;99.90;;;;;;5070972;28;20463;-73
2023/09/28 05:40:28;;;;;;;38.70;6.15;;;17.10;99.90;;;;;;5071230;28;20024;-71
2023/09/28 05:42:54;;;;;;;36.20;4.95;;;17.10;99.90;;;;;;5070510;28;20529;-71
2023/09/28 05:45:20;;;;;;;38.33;6.25;;;17.00;99.90;;;;;;5070312;28;20057;-71
2023/09/28 05:47:47;;;;;;;41.10;6.15;;;17.00;99.90;;;;;;5069846;28;20138;-71
2023/09/28 05:50:12;;;;;;;44.15;6.05;;;16.90;99.90;;;;;;5071148;28;20023;-71
2023/09/28 05:52:39;;;;;;;33.58;5.35;;;16.90;99.90;;;;;;5070628;28;20021;-72
2023/09/28 05:55:05;;;;;;;43.50;6.18;;;16.90;99.90;;;;;;5069367;28;20028;-71
2023/09/28 05:57:31;;;;;;;35.85;5.88;;;16.90;99.90;;;;;;5070908;28;20078;-71
2023/09/28 05:59:56;;;;;;;43.17;5.93;;;16.90;99.90;;;;;;5065009;28;20036;-72
2023/09/28 06:02:22;;;;;;;42.47;5.43;;;16.90;99.90;;;;;;5069789;28;20056;-71
2023/09/28 06:04:48;;;;;;;43.47;6.10;;;16.80;99.90;;;;;;5070543;28;20488;-72
2023/09/28 06:07:13;;;;;;;36.15;5.65;;;16.90;99.90;;;;;;5070568;28;20108;-71
2023/09/28 06:09:42;;;;;;;41.67;5.55;;;16.90;99.90;;;;;;5070781;28;20088;-71
2023/09/28 06:12:08;;;;;;;47.63;6.93;;;16.90;99.90;;;;;;5071779;28;20024;-71
2023/09/28 06:14:34;;;;;;;36.95;6.22;;;16.90;99.90;;;;;;5074809;28;20016;-71
2023/09/28 06:17:00;;;;;;;45.85;5.85;;;16.90;99.90;;;;;;5072914;28;20017;-71
2023/09/28 06:19:27;;;;;;;43.58;6.22;;;16.90;99.90;;;;;;5074071;28;20557;-71
2023/09/28 06:21:53;;;;;;;35.78;5.78;;;17.00;99.90;;;;;;5074287;28;20021;-72
2023/09/28 06:24:18;;;;;;;48.70;6.35;;;17.00;99.90;;;;;;5073727;28;20468;-71
2023/09/28 06:26:44;;;;;;;34.88;5.82;;;17.10;99.90;;;;;;5070082;28;20025;-70
2023/09/28 06:29:10;;;;;;;41.22;5.97;;;17.10;99.90;;;;;;5073071;28;20069;-71
2023/09/28 06:31:36;;;;;;;44.17;6.45;;;17.10;99.90;;;;;;5073937;28;20017;-72
2023/09/28 06:34:02;;;;;;;39.08;6.20;;;17.10;99.90;;;;;;5070946;28;20162;-71
2023/09/28 06:36:29;;;;;;;41.75;6.28;;;17.20;99.90;;;;;;5073273;28;20107;-71
2023/09/28 06:38:55;;;;;;;39.95;5.57;;;17.20;99.90;;;;;;5074553;28;20494;-71
2023/09/28 06:41:21;;;;;;;36.20;5.60;;;17.20;99.90;;;;;;5062263;28;20099;-71
2023/09/28 06:43:48;;;;;;;39.72;5.47;;;17.30;99.90;;;;;;5074211;28;20106;-71
2023/09/28 06:46:14;;;;;;;36.22;5.57;;;17.30;99.90;;;;;;5074185;28;20027;-71
2023/09/28 06:48:40;;;;;;;38.28;5.38;;;17.30;99.90;;;;;;5073683;28;20028;-70
2023/09/28 06:51:05;;;;;;;38.83;5.78;;;17.30;99.90;;;;;;5073999;28;20096;-70
2023/09/28 06:53:32;;;;;;;32.97;5.53;;;17.40;99.90;;;;;;5073826;28;20036;-72
2023/09/28 06:56:01;;;;;;;41.10;6.13;;;17.40;99.90;;;;;;5073965;28;20028;-71
2023/09/28 06:58:27;;;;;;;37.72;5.00;;;17.50;99.90;;;;;;5068907;28;20036;-71
2023/09/28 07:00:53;;;;;;;38.55;5.97;;;17.50;99.90;;;;;;5068206;28;20021;-71
2023/09/28 07:03:19;;;;;;;32.70;6.13;;;17.50;99.90;;;;;;5065990;28;20062;-71
2023/09/28 07:05:45;;;;;;;45.45;6.00;;;17.50;99.90;;;;;;5063848;28;20437;-71
2023/09/28 07:08:11;;;;;;;30.67;5.45;;;17.50;99.90;;;;;;5071734;28;20016;-71
2023/09/28 07:10:37;;;;;;;35.38;5.95;;;17.50;99.90;;;;;;5071780;28;20028;-71
2023/09/28 07:13:05;;;;;;;28.80;4.80;;;17.50;99.90;;;;;;5071896;28;20680;-71
2023/09/28 07:15:34;;;;;;;33.78;5.03;;;17.60;99.90;;;;;;5070489;28;20029;-71
2023/09/28 07:18:00;;;;;;;42.38;5.75;;;17.60;99.90;;;;;;5070098;28;20442;-71
2023/09/28 07:20:26;;;;;;;38.05;5.93;;;17.60;99.90;;;;;;5067790;28;20092;-71
2023/09/28 07:22:52;;;;;;;38.63;5.70;;;17.60;99.90;;;;;;5071675;28;20035;-70
2023/09/28 07:25:19;;;;;;;44.63;6.72;;;17.60;99.90;;;;;;5072117;28;20024;-71
2023/09/28 07:27:47;;;;;;;36.10;6.10;;;17.70;99.90;;;;;;5072441;28;20027;-71
2023/09/28 07:30:14;;;;;;;42.60;5.95;;;17.70;99.90;;;;;;5071054;28;20027;-71
2023/09/28 07:32:40;;;;;;;40.28;5.10;;;17.80;99.90;;;;;;5071478;28;20059;-71
2023/09/28 07:35:09;;;;;;;42.92;5.95;;;17.80;99.90;;;;;;5072053;28;20108;-71
2023/09/28 07:37:35;;;;;;;32.95;5.68;;;17.80;99.90;;;;;;5056872;28;20032;-71
2023/09/28 07:40:01;;;;;;;33.83;5.47;;;17.90;99.90;;;;;;5071537;28;20614;-71
2023/09/28 07:42:27;;;;;;;34.08;5.38;;;17.90;99.90;;;;;;5068395;28;20738;-71
2023/09/28 07:44:53;;;;;;;33.38;5.15;;;17.90;99.90;;;;;;5070155;28;20025;-71
2023/09/28 07:47:19;;;;;;;35.08;5.60;;;18.00;99.90;;;;;;5072307;28;20706;-71
2023/09/28 07:49:48;;;;;;;33.20;5.18;;;18.00;99.90;;;;;;5072093;28;20079;-71
2023/09/28 07:52:14;;;;;;;32.35;4.88;;;18.10;99.90;;;;;;5070998;28;20017;-72
2023/09/28 07:54:40;;;;;;;32.63;5.18;;;18.10;99.90;;;;;;5072385;28;20108;-71
2023/09/28 07:57:07;;;;;;;37.08;5.32;;;18.20;99.90;;;;;;5070361;28;20434;-72
2023/09/28 07:59:34;;;;;;;37.17;5.68;;;18.20;99.90;;;;;;5072530;28;20025;-71
2023/09/28 08:02:00;;;;;;;39.20;5.78;;;18.20;99.90;;;;;;5071230;28;20108;-72
2023/09/28 08:04:26;;;;;;;34.90;5.63;;;18.20;99.90;;;;;;5023708;28;1175336;-71
2023/09/28 08:06:52;;;;;;;34.65;5.88;;;18.20;99.90;;;;;;5071952;28;20266;-72
2023/09/28 08:09:19;;;;;;;46.70;6.45;;;18.30;99.90;;;;;;5072756;28;20027;-72
2023/09/28 08:11:47;;;;;;;35.17;6.30;;;18.40;99.90;;;;;;5072258;28;20027;-72
2023/09/28 08:14:15;;;;;;;31.20;5.97;;;18.50;99.90;;;;;;5072822;28;20089;-71
2023/09/28 08:16:42;;;;;;;40.90;5.75;;;18.50;99.90;;;;;;5072653;28;20096;-71
2023/09/28 08:19:08;;;;;;;31.98;5.50;;;18.60;99.90;;;;;;5072383;28;20029;-71
2023/09/28 08:21:37;;;;;;;39.90;5.70;;;18.60;99.90;;;;;;5072767;28;20029;-71
2023/09/28 08:24:03;;;;;;;33.95;5.97;;;18.60;99.90;;;;;;5072124;28;20066;-72
2023/09/28 08:26:30;;;;;;;35.08;5.35;;;18.60;99.90;;;;;;5071993;28;20521;-72
2023/09/28 08:28:57;;;;;;;29.55;5.68;;;18.70;99.90;;;;;;5071667;28;20028;-72
2023/09/28 08:31:23;;;;;;;35.85;5.43;;;18.80;99.90;;;;;;5072358;28;20070;-72
2023/09/28 08:33:49;;;;;;;35.50;5.57;;;18.80;99.90;;;;;;5069724;28;20036;-72
2023/09/28 08:36:15;;;;;;;40.15;5.93;;;18.90;99.90;;;;;;5068075;28;20082;-73
2023/09/28 08:38:41;;;;;;;32.40;4.75;;;18.90;99.90;;;;;;5071572;28;20019;-72
2023/09/28 08:41:09;;;;;;;38.65;6.25;;;18.90;99.90;;;;;;5072020;28;20479;-72
2023/09/28 08:43:43;;;;;;;31.05;5.15;;;19.00;99.90;;;;;;5070873;28;20024;-72
2023/09/28 08:46:14;;;;;;;38.70;5.53;;;19.00;99.90;;;;;;5071896;28;20025;-71
2023/09/28 08:48:51;;;;;;;29.48;4.88;;;19.10;99.90;;;;;;5070131;28;20028;-70
2023/09/28 08:51:18;;;;;;;41.85;5.72;;;19.30;99.90;;;;;;5071529;28;20463;-70
2023/09/28 08:53:48;;;;;;;33.67;5.43;;;19.30;99.90;;;;;;5068404;28;20021;-73
2023/09/28 08:56:14;;;;;;;36.75;5.88;;;19.30;99.90;;;;;;5070893;28;20037;-73
2023/09/28 08:58:43;;;;;;;35.70;5.82;;;19.30;99.90;;;;;;5071679;28;20032;-72
2023/09/28 09:01:10;;;;;;;35.33;5.55;;;19.30;99.90;;;;;;5067613;28;20237;-73
2023/09/28 09:03:38;;;;;;;37.95;6.25;;;19.30;99.90;;;;;;5071936;28;20622;-72
2023/09/28 09:06:06;;;;;;;37.72;6.13;;;19.30;99.90;;;;;;5071780;28;20040;-72
2023/09/28 09:08:35;;;;;;;33.47;5.32;;;19.20;99.90;;;;;;5072018;28;20581;-72
2023/09/28 09:11:01;;;;;;;31.40;5.47;;;19.10;99.90;;;;;;5067490;28;20381;-72
2023/09/28 09:13:28;;;;;;;39.05;5.97;;;19.10;99.90;;;;;;5062932;28;20017;-72
2023/09/28 09:15:55;;;;;;;36.53;5.22;;;19.00;99.90;;;;;;5069674;28;20062;-72
2023/09/28 09:18:24;;;;;;;25.75;4.90;;;19.00;99.90;;;;;;5071664;28;20033;-72
2023/09/28 09:20:51;;;;;;;35.67;5.55;;;19.00;99.90;;;;;;5071570;28;20013;-72
2023/09/28 09:23:17;;;;;;;36.63;6.18;;;19.00;99.90;;;;;;5071346;28;20474;-72
2023/09/28 09:25:44;;;;;;;35.85;5.93;;;19.00;99.90;;;;;;5070997;28;20047;-72
2023/09/28 09:28:43;;;;;;;35.00;4.88;;;18.90;99.90;;;;;;5070938;28;20043;-72
2023/09/28 09:31:09;;;;;;;40.40;5.63;;;18.90;99.90;;;;;;5066731;28;20035;-72
2023/09/28 09:33:36;;;;;;;37.85;5.97;;;18.90;99.90;;;;;;5071096;28;20379;-72
2023/09/28 09:36:02;;;;;;;36.22;5.30;;;19.00;99.90;;;;;;5071144;28;20025;-72
2023/09/28 09:38:29;;;;;;;34.83;5.35;;;19.00;99.90;;;;;;5071535;28;20467;-72
2023/09/28 09:41:04;;;;;;;31.05;5.25;;;19.10;99.90;;;;;;5071437;28;20440;-72
2023/09/28 09:43:40;;;;;;;34.22;5.00;;;19.20;99.90;;;;;;5071140;28;20021;-72
2023/09/28 09:46:09;;;;;;;31.33;5.45;;;19.20;99.90;;;;;;5070157;28;20032;-72
2023/09/28 09:48:40;;;;;;;35.50;4.97;;;19.30;99.90;;;;;;5068103;28;20043;-72
2023/09/28 09:51:12;;;;;;;30.63;5.07;;;19.30;99.90;;;;;;5069653;28;20017;-72
2023/09/28 09:53:43;;;;;;;34.88;5.38;;;19.30;99.90;;;;;;5063588;28;20426;-72
2023/09/28 09:56:09;;;;;;;27.88;4.88;;;19.40;99.90;;;;;;5064385;28;20031;-70
2023/09/28 09:58:49;;;;;;;31.90;5.05;;;19.40;99.90;;;;;;5067768;28;20217;-70
2023/09/28 10:01:19;;;;;;;26.23;5.05;;;19.50;99.90;;;;;;5069821;28;20059;-70
2023/09/28 10:03:52;;;;;;;29.02;4.65;;;19.50;99.90;;;;;;5055868;28;20190;-70
2023/09/28 10:06:20;;;;;;;33.65;5.50;;;19.50;99.90;;;;;;5069816;28;20411;-70
2023/09/28 10:08:49;;;;;;;32.00;5.00;;;19.60;99.90;;;;;;5070622;28;20031;-70
2023/09/28 10:11:16;;;;;;;33.38;5.00;;;19.70;99.90;;;;;;5070837;28;20505;-70
2023/09/28 10:13:42;;;;;;;28.73;4.57;;;19.70;99.90;;;;;;5071258;28;20066;-70
2023/09/28 10:16:12;;;;;;;33.72;4.50;;;19.80;99.90;;;;;;5058050;28;20445;-70
2023/09/28 10:18:40;;;;;;;33.05;4.90;;;19.80;99.90;;;;;;5070734;28;20107;-70
2023/09/28 10:21:07;;;;;;;39.28;5.78;;;19.80;99.90;;;;;;5070988;28;20429;-71
2023/09/28 10:23:33;;;;;;;28.52;4.70;;;19.90;99.90;;;;;;5070614;28;20742;-71
2023/09/28 10:26:19;;;;;;;33.55;5.28;;;20.00;99.90;;;;;;5070775;28;20043;-71
2023/09/28 10:29:07;;;;;;;34.17;5.15;;;20.00;99.90;;;;;;5058301;28;20040;-71
2023/09/28 10:31:42;;;;;;;39.67;5.13;;;20.00;99.90;;;;;;5068293;28;20021;-71
2023/09/28 10:34:08;;;;;;;37.93;5.97;;;20.00;99.90;;;;;;5070809;28;20017;-71
2023/09/28 10:36:37;;;;;;;32.78;5.63;;;20.00;99.90;;;;;;5084577;28;20086;-71
2023/09/28 10:39:17;;;;;;;30.08;4.75;;;20.00;99.90;;;;;;5058371;28;20074;-71
2023/09/28 10:41:47;;;;;;;31.05;4.80;;;19.90;99.90;;;;;;5065260;28;20074;-71
2023/09/28 10:44:20;;;;;;;29.58;5.82;;;19.80;99.90;;;;;;5068631;28;20496;-71
2023/09/28 10:46:47;;;;;;;24.55;4.85;;;19.80;99.90;;;;;;5067236;28;20028;-71
2023/09/28 10:49:15;;;;;;;30.73;5.57;;;19.70;99.90;;;;;;5069736;28;20035;-71
2023/09/28 10:51:42;;;;;;;34.47;5.45;;;19.70;99.90;;;;;;5070550;28;20020;-71
2023/09/28 10:54:08;;;;;;;32.53;5.50;;;19.70;99.90;;;;;;5070364;28;20032;-71
2023/09/28 10:56:34;;;;;;;27.80;5.65;;;19.80;99.90;;;;;;5070307;28;20039;-71
2023/09/28 10:59:02;;;;;;;27.50;5.10;;;19.80;99.90;;;;;;5072947;28;20050;-71
2023/09/28 11:01:28;;;;;;;29.90;5.50;;;19.90;99.90;;;;;;5073387;28;20066;-71
2023/09/28 11:03:54;;;;;;;34.67;5.57;;;19.90;99.90;;;;;;5074169;28;20016;-71
2023/09/28 11:06:21;;;;;;;32.50;5.68;;;19.90;99.90;;;;;;5073665;28;20049;-71
2023/09/28 11:08:49;;;;;;;29.38;5.97;;;19.90;99.90;;;;;;5073629;28;20069;-71
2023/09/28 11:11:17;;;;;;;27.17;5.45;;;20.00;99.90;;;;;;5091474;28;20467;-72
2023/09/28 11:13:43;;;;;;;37.72;5.57;;;20.00;99.90;;;;;;5074120;28;20810;-72
2023/09/28 11:16:11;;;;;;;32.13;5.25;;;20.10;99.90;;;;;;5074029;28;20032;-72
2023/09/28 11:18:37;;;;;;;41.90;5.88;;;20.10;99.90;;;;;;5074058;28;20099;-71
2023/09/28 11:21:03;;;;;;;29.55;5.40;;;20.20;99.90;;;;;;5073915;28;20021;-71
2023/09/28 11:23:29;;;;;;;25.05;4.82;;;20.20;99.90;;;;;;5063659;28;20168;-72
2023/09/28 11:25:55;;;;;;;29.88;5.60;;;20.20;99.90;;;;;;5072679;28;20025;-71
2023/09/28 11:28:22;;;;;;;36.35;6.68;;;20.20;99.90;;;;;;5073674;28;20095;-71
2023/09/28 11:31:11;;;;;;;27.90;5.45;;;20.20;99.90;;;;;;5073213;28;20032;-71
2023/09/28 11:33:38;;;;;;;32.47;5.97;;;20.30;99.90;;;;;;5088361;28;20035;-72
2023/09/28 11:36:07;;;;;;;36.05;5.63;;;20.30;99.90;;;;;;5073483;28;20020;-71
2023/09/28 11:38:33;;;;;;;33.40;5.93;;;20.20;99.90;;;;;;5073402;28;20016;-71
2023/09/28 11:41:04;;;;;;;35.80;6.35;;;20.10;99.90;;;;;;5072912;28;20577;-71
2023/09/28 11:43:33;;;;;;;36.10;5.85;;;20.10;99.90;;;;;;5073256;28;20031;-72
2023/09/28 11:46:00;;;;;;;35.42;5.53;;;20.10;99.90;;;;;;5073185;28;20491;-72
2023/09/28 11:48:25;;;;;;;30.25;5.85;;;20.10;99.90;;;;;;5073173;28;20379;-71
2023/09/28 11:50:52;;;;;;;30.60;5.47;;;20.20;99.90;;;;;;5065344;28;20021;-72
2023/09/28 11:53:18;;;;;;;24.90;5.22;;;20.30;99.90;;;;;;5070975;28;20020;-71
2023/09/28 11:55:47;;;;;;;23.40;4.38;;;20.30;99.90;;;;;;5072814;28;20024;-71
2023/09/28 11:58:20;;;;;;;26.05;4.82;;;20.40;99.90;;;;;;5073083;28;20021;-71
2023/09/28 12:00:46;;;;;;;25.13;4.78;;;20.40;99.90;;;;;;5069950;28;20108;-72
2023/09/28 12:03:12;;;;;;;23.35;4.88;;;20.40;99.90;;;;;;5071870;28;20096;-71
2023/09/28 12:05:40;;;;;;;26.95;5.00;;;20.40;99.90;;;;;;5073039;28;20045;-71
2023/09/28 12:08:07;;;;;;;24.70;4.22;;;20.30;99.90;;;;;;5073120;28;20013;-72
2023/09/28 12:10:33;;;;;;;28.58;5.25;;;20.30;99.90;;;;;;5069979;28;20016;-71
2023/09/28 12:12:58;;;;;;;25.08;4.50;;;20.30;99.90;;;;;;5070826;28;20021;-72
2023/09/28 12:15:24;;;;;;;26.13;4.80;;;20.30;99.90;;;;;;5071231;28;20029;-72
2023/09/28 12:17:50;;;;;;;31.10;5.32;;;20.30;99.90;;;;;;5064951;28;20024;-72
2023/09/28 12:20:15;;;;;;;27.27;4.70;;;20.30;99.90;;;;;;5072747;28;20016;-72
2023/09/28 12:22:42;;;;;;;26.02;5.10;;;20.40;99.90;;;;;;5071470;28;20048;-72
2023/09/28 12:25:10;;;;;;;22.15;4.35;;;20.40;99.90;;;;;;5073253;28;20020;-72
2023/09/28 12:27:36;;;;;;;24.23;4.88;;;20.50;99.90;;;;;;5088227;28;20021;-72
2023/09/28 12:30:03;;;;;;;30.90;4.10;;;20.60;99.90;;;;;;5070854;28;20414;-72
2023/09/28 12:32:29;;;;;;;26.48;4.30;;;20.60;99.90;;;;;;5072721;28;20357;-72
2023/09/28 12:35:01;;;;;;;25.30;4.32;;;20.60;99.90;;;;;;5072001;28;20033;-71
2023/09/28 12:37:27;;;;;;;22.23;4.25;;;20.60;99.90;;;;;;5072611;28;20471;-71
2023/09/28 12:39:53;;;;;;;22.15;3.90;;;20.50;99.90;;;;;;5072650;28;20019;-71
2023/09/28 12:42:24;;;;;;;27.90;4.22;;;20.50;99.90;;;;;;5072783;28;20016;-71